createdAt,value
2019-01-27T00:02:34.112Z,10.78
2019-01-27T00:05:20.367Z,6.85
2019-01-27T00:07:46.880Z,7.45
2019-01-27T00:10:13.373Z,7.97
2019-01-27T00:12:59.631Z,7.65
2019-01-27T00:15:45.894Z,9.00
2019-01-27T00:18:25.392Z,7.22
2019-01-27T00:21:11.682Z,7.58
2019-01-27T00:23:52.172Z,7.92
2019-01-27T00:26:38.335Z,7.08
2019-01-27T00:29:04.980Z,7.85
2019-01-27T00:31:51.224Z,7.45
2019-01-27T00:34:37.588Z,6.37
2019-01-27T00:37:17.882Z,7.15
2019-01-27T00:42:56.774Z,6.30
2019-01-27T00:45:43.162Z,10.85
2019-01-27T00:48:22.826Z,8.08
2019-01-27T00:50:49.327Z,6.72
2019-01-27T00:53:35.614Z,7.97
2019-01-27T00:56:15.892Z,6.30
2019-01-27T00:58:42.517Z,6.30
2019-01-27T01:01:28.859Z,6.20
2019-01-27T01:04:09.386Z,7.08
2019-01-27T01:06:56.892Z,5.80
2019-01-27T01:09:36.680Z,7.50
2019-01-27T01:12:03.282Z,7.53
2019-01-27T01:14:29.682Z,7.22
2019-01-27T01:17:15.970Z,7.85
2019-01-27T01:19:55.907Z,7.58
2019-01-27T01:22:42.295Z,7.47
2019-01-27T01:25:22.361Z,8.43
2019-01-27T01:28:08.598Z,7.45
2019-01-27T01:31:09.650Z,7.78
2019-01-27T01:33:49.127Z,7.40
2019-01-27T01:36:35.357Z,10.68
2019-01-27T01:39:16.270Z,8.23
2019-01-27T01:42:02.542Z,6.20
2019-01-27T01:44:29.038Z,5.75
2019-01-27T01:50:14.205Z,6.03
2019-01-27T01:52:54.711Z,6.22
2019-01-27T01:55:40.977Z,8.28
2019-01-27T02:01:28.496Z,7.72
2019-01-27T02:04:08.459Z,9.53
2019-01-27T02:06:54.866Z,5.17
2019-01-27T02:09:41.018Z,7.03
2019-01-27T02:12:20.793Z,6.50
2019-01-27T02:15:20.384Z,4.45
2019-01-27T02:18:28.599Z,4.45
2019-01-27T02:21:08.234Z,8.63
2019-01-27T02:23:54.647Z,6.87
2019-01-27T02:26:21.351Z,8.73
2019-01-27T02:29:07.871Z,4.55
2019-01-27T02:31:54.255Z,7.97
2019-01-27T02:34:34.396Z,6.67
2019-01-27T02:37:00.858Z,5.15
2019-01-27T02:39:47.212Z,5.40
2019-01-27T02:42:27.590Z,3.55
2019-01-27T02:45:14.275Z,6.03
2019-01-27T02:48:00.650Z,4.80
2019-01-27T02:50:40.564Z,6.55
2019-01-27T02:53:07.047Z,5.37
2019-01-27T02:55:53.302Z,8.55
2019-01-27T02:58:33.344Z,4.22
2019-01-27T03:01:19.862Z,3.50
2019-01-27T03:03:59.712Z,6.17
2019-01-27T03:15:55.731Z,5.30
2019-01-27T03:18:41.980Z,4.95
2019-01-27T03:21:21.739Z,7.42
2019-01-27T03:24:07.987Z,5.33
2019-01-27T03:26:54.267Z,4.42
2019-01-27T03:29:40.514Z,6.08
2019-01-27T03:32:19.919Z,6.35
2019-01-27T03:35:07.541Z,5.33
2019-01-27T03:37:47.195Z,3.87
2019-01-27T03:40:33.466Z,4.83
2019-01-27T03:42:59.900Z,6.22
2019-01-27T03:45:26.382Z,6.30
2019-01-27T03:48:12.639Z,3.37
2019-01-27T03:53:59.052Z,4.03
2019-01-27T03:56:41.092Z,6.08
2019-01-27T04:02:27.803Z,5.75
2019-01-27T04:05:14.127Z,4.30
2019-01-27T04:07:53.928Z,3.98
2019-01-27T04:13:30.643Z,2.90
2019-01-27T04:15:57.389Z,3.90
2019-01-27T04:18:23.992Z,4.45
2019-01-27T04:20:50.459Z,5.08
2019-01-27T04:23:16.960Z,5.85
2019-01-27T04:25:43.487Z,3.77
2019-01-27T04:31:27.822Z,6.22
2019-01-27T04:33:54.325Z,5.03
2019-01-27T04:36:40.542Z,4.78
2019-01-27T04:39:20.863Z,4.95
2019-01-27T04:41:47.341Z,7.12
2019-01-27T04:44:13.864Z,5.33
2019-01-27T04:49:52.026Z,6.30
2019-01-27T04:52:18.601Z,4.83
2019-01-27T04:54:45.231Z,3.92
2019-01-27T04:57:11.790Z,5.12
2019-01-27T04:59:58.067Z,4.42
2019-01-27T05:05:25.290Z,8.88
2019-01-27T05:08:07.028Z,4.10
2019-01-27T05:10:53.267Z,5.87
2019-01-27T05:13:33.831Z,6.37
2019-01-27T05:16:00.507Z,6.30
2019-01-27T05:18:46.850Z,6.25
2019-01-27T05:21:26.850Z,6.58
2019-01-27T05:24:13.208Z,7.30
2019-01-27T05:26:53.260Z,6.47
2019-01-27T05:29:40.518Z,7.75
2019-01-27T05:32:21.239Z,5.85
2019-01-27T05:35:07.474Z,5.65
2019-01-27T05:37:47.458Z,6.28
2019-01-27T05:40:33.901Z,5.70
2019-01-27T05:43:13.443Z,6.22
2019-01-27T05:45:59.717Z,7.42
2019-01-27T05:48:26.236Z,4.95
2019-01-27T05:51:12.565Z,6.22
2019-01-27T05:53:38.948Z,6.95
2019-01-27T05:56:25.336Z,5.08
2019-01-27T05:58:51.950Z,5.03
2019-01-27T06:01:38.298Z,6.85
2019-01-27T06:04:24.684Z,7.37
2019-01-27T06:07:04.231Z,6.12
2019-01-27T06:09:50.482Z,7.37
2019-01-27T06:12:30.374Z,7.58
2019-01-27T06:15:17.089Z,5.12
2019-01-27T06:17:56.586Z,3.87
2019-01-27T06:20:42.864Z,3.72
2019-01-27T06:23:22.853Z,6.00
2019-01-27T06:26:09.101Z,10.03
2019-01-27T06:28:48.799Z,4.65
2019-01-27T06:31:35.041Z,6.85
2019-01-27T06:34:01.820Z,4.40
2019-01-27T06:36:28.414Z,5.25
2019-01-27T06:38:54.929Z,4.53
2019-01-27T06:41:41.183Z,5.75
2019-01-27T06:44:21.481Z,6.87
2019-01-27T06:46:48.025Z,8.20
2019-01-27T06:49:34.422Z,7.55
2019-01-27T06:52:14.377Z,6.05
2019-01-27T06:57:45.809Z,6.35
2019-01-27T07:00:47.286Z,5.30
2019-01-27T07:09:42.279Z,5.00
2019-01-27T07:15:37.287Z,7.03
2019-01-27T07:21:09.535Z,5.10
2019-01-27T07:24:15.645Z,4.87
2019-01-27T07:26:57.530Z,4.30
2019-01-27T07:29:57.271Z,4.50
2019-01-27T07:38:44.611Z,5.30
2019-01-27T07:41:26.588Z,6.65
2019-01-27T07:44:32.680Z,6.20
2019-01-27T07:53:51.239Z,6.03
2019-01-27T07:56:37.651Z,7.28
2019-01-27T07:59:43.826Z,8.73
2019-01-27T08:02:43.771Z,6.22
2019-01-27T08:05:30.182Z,6.40
2019-01-27T08:08:31.011Z,6.55
2019-01-27T08:14:49.797Z,4.20
2019-01-27T08:17:36.833Z,9.60
2019-01-27T08:20:38.131Z,7.58
2019-01-27T08:23:37.662Z,9.15
2019-01-27T08:32:47.096Z,7.92
2019-01-27T08:45:24.676Z,7.55
2019-01-27T08:48:04.921Z,6.33
2019-01-27T08:50:31.407Z,6.22
2019-01-27T08:53:17.635Z,6.05
2019-01-27T08:55:44.138Z,6.28
2019-01-27T08:58:30.407Z,6.75
2019-01-27T09:04:13.222Z,8.08
2019-01-27T09:12:44.147Z,6.55
2019-01-27T09:15:50.320Z,7.87
2019-01-27T09:18:50.221Z,6.55
2019-01-27T09:21:56.363Z,7.60
2019-01-27T09:24:38.195Z,7.62
2019-01-27T09:27:24.560Z,6.60
2019-01-27T09:30:10.815Z,9.30
2019-01-27T09:33:16.944Z,7.47
2019-01-27T09:35:58.607Z,6.45
2019-01-27T09:41:47.664Z,6.40
2019-01-27T09:50:23.251Z,9.50
2019-01-27T09:59:37.022Z,8.23
2019-01-27T10:08:01.218Z,9.00
2019-01-27T10:11:07.342Z,7.87
2019-01-27T10:14:06.807Z,7.97
2019-01-27T10:17:12.930Z,4.83
2019-01-27T10:20:12.933Z,5.95
2019-01-27T10:23:19.138Z,6.70
2019-01-27T10:26:19.239Z,10.53
2019-01-27T10:29:25.360Z,7.95
2019-01-27T10:32:25.622Z,6.92
2019-01-27T10:35:07.849Z,4.50
2019-01-27T10:38:09.044Z,9.43
2019-01-27T10:40:51.231Z,7.05
2019-01-27T10:43:37.652Z,7.65
2019-01-27T10:46:37.530Z,6.50
2019-01-27T10:49:43.641Z,6.67
2019-01-27T10:52:28.451Z,5.97
2019-01-27T10:55:27.712Z,6.08
2019-01-27T10:58:27.154Z,5.20
2019-01-27T11:07:15.237Z,5.53
2019-01-27T11:10:01.673Z,6.47
2019-01-27T11:12:43.680Z,6.25
2019-01-27T11:15:49.918Z,5.87
2019-01-27T11:18:32.094Z,8.50
2019-01-27T11:21:18.449Z,7.23
2019-01-27T11:30:18.747Z,7.23
2019-01-27T11:42:38.352Z,5.80
2019-01-27T11:45:44.487Z,5.40
2019-01-27T11:48:31.004Z,8.08
2019-01-27T11:54:01.658Z,6.50
2019-01-27T11:56:48.063Z,7.47
2019-01-27T11:59:28.642Z,7.70
2019-01-27T12:02:15.008Z,6.60
2019-01-27T12:04:54.847Z,7.58
2019-01-27T12:07:21.388Z,6.50
2019-01-27T12:12:58.312Z,6.13
2019-01-27T12:15:25.066Z,6.90
2019-01-27T12:18:11.401Z,8.57
2019-01-27T12:20:50.890Z,6.37
2019-01-27T12:23:17.452Z,4.70
2019-01-27T12:26:03.838Z,6.77
2019-01-27T12:28:50.212Z,6.33
2019-01-27T12:31:29.902Z,5.60
2019-01-27T12:34:16.266Z,6.93
2019-01-27T12:36:56.090Z,7.27
2019-01-27T12:39:42.356Z,5.67
2019-01-27T12:42:22.521Z,7.50
2019-01-27T12:48:23.134Z,8.93
2019-01-27T12:51:09.635Z,7.97
2019-01-27T12:53:36.155Z,6.00
2019-01-27T12:56:02.748Z,8.03
2019-01-27T12:58:49.105Z,7.70
2019-01-27T13:01:16.012Z,7.47
2019-01-27T13:04:02.446Z,11.97
2019-01-27T13:06:42.143Z,8.07
2019-01-27T13:09:29.938Z,10.13
2019-01-27T13:12:14.105Z,6.13
2019-01-27T13:15:00.357Z,9.00
2019-01-27T13:17:40.337Z,6.47
2019-01-27T13:23:22.428Z,10.43
2019-01-27T13:26:08.786Z,8.33
2019-01-27T13:28:48.576Z,3.20
2019-01-27T13:31:34.864Z,9.40
2019-01-27T13:34:01.569Z,6.23
2019-01-27T13:36:28.062Z,9.33
2019-01-27T13:39:14.359Z,7.27
2019-01-27T13:41:54.328Z,5.50
2019-01-27T13:44:40.653Z,6.57
2019-01-27T13:47:20.674Z,11.77
2019-01-27T13:50:10.101Z,8.73
2019-01-27T13:52:50.059Z,5.60
2019-01-27T13:55:36.442Z,8.00
2019-01-27T13:58:18.434Z,10.93
2019-01-27T14:01:04.558Z,5.33
2019-01-27T14:03:31.080Z,7.03
2019-01-27T14:06:17.421Z,7.13
2019-01-27T14:12:03.998Z,7.37
2019-01-27T14:14:50.231Z,7.23
2019-01-27T14:17:36.479Z,7.70
2019-01-27T14:20:17.510Z,6.30
2019-01-27T14:22:44.055Z,6.65
2019-01-27T14:25:30.359Z,5.37
2019-01-27T14:27:56.991Z,8.15
2019-01-27T14:30:43.676Z,8.38
2019-01-27T14:33:30.112Z,8.95
2019-01-27T14:36:10.058Z,7.60
2019-01-27T14:38:56.339Z,8.15
2019-01-27T14:41:36.202Z,7.20
2019-01-27T14:44:22.579Z,8.97
2019-01-27T14:47:02.314Z,10.37
2019-01-27T14:49:48.588Z,10.77
2019-01-27T14:52:28.302Z,9.43
2019-01-27T14:55:15.730Z,7.77
2019-01-27T14:58:16.399Z,5.73
2019-01-27T15:00:55.831Z,8.57
2019-01-27T15:03:42.077Z,8.60
2019-01-27T15:06:22.333Z,8.80
2019-01-27T15:09:08.566Z,7.07
2019-01-27T15:11:47.924Z,9.83
2019-01-27T15:14:27.870Z,6.57
2019-01-27T15:17:14.090Z,7.60
2019-01-27T15:19:54.202Z,7.47
2019-01-27T15:22:40.483Z,4.43
2019-01-27T15:25:20.522Z,7.20
2019-01-27T15:28:07.263Z,5.97
2019-01-27T15:30:47.366Z,6.97
2019-01-27T15:33:33.780Z,7.20
2019-01-27T15:36:14.378Z,7.80
2019-01-27T15:39:00.667Z,6.47
2019-01-27T15:41:41.526Z,6.73
2019-01-27T15:44:08.037Z,9.07
2019-01-27T15:46:34.543Z,6.30
2019-01-27T15:49:20.923Z,6.13
2019-01-27T15:52:01.344Z,6.97
2019-01-27T15:54:47.599Z,5.43
2019-01-27T15:57:27.206Z,5.53
2019-01-27T16:00:14.906Z,6.30
2019-01-27T16:02:55.275Z,8.00
2019-01-27T16:05:41.547Z,8.03
2019-01-27T16:08:21.390Z,7.53
2019-01-27T16:11:07.757Z,8.07
2019-01-27T16:13:47.816Z,8.37
2019-01-27T16:16:49.365Z,7.87
2019-01-27T16:19:29.699Z,8.90
2019-01-27T16:22:16.049Z,7.77
2019-01-27T16:25:03.001Z,7.80
2019-01-27T16:27:42.874Z,8.40
2019-01-27T16:30:48.986Z,10.13
2019-01-27T16:33:49.860Z,10.23
2019-01-27T16:36:16.343Z,8.43
2019-01-27T16:38:42.875Z,8.83
2019-01-27T16:41:29.234Z,7.67
2019-01-27T16:47:30.556Z,6.87
2019-01-27T16:50:13.808Z,8.33
2019-01-27T16:53:00.030Z,7.80
2019-01-27T16:55:39.541Z,9.00
2019-01-27T16:58:25.810Z,10.07
2019-01-27T17:01:05.554Z,12.53
2019-01-27T17:03:51.857Z,8.53
2019-01-27T17:06:31.566Z,8.97
2019-01-27T17:09:17.999Z,10.07
2019-01-27T17:11:57.510Z,12.70
2019-01-27T17:14:37.602Z,12.80
2019-01-27T17:17:23.984Z,13.43
2019-01-27T17:19:50.494Z,10.53
2019-01-27T17:22:17.024Z,21.07
2019-01-27T17:24:43.437Z,16.77
2019-01-27T17:27:29.670Z,15.63
2019-01-27T17:30:35.828Z,14.87
2019-01-27T17:33:02.484Z,11.83
2019-01-27T17:35:48.839Z,15.77
2019-01-27T17:41:19.172Z,15.67
2019-01-27T17:43:58.791Z,14.37
2019-01-27T17:47:06.670Z,16.37
2019-01-27T17:49:46.885Z,14.83
2019-01-27T17:52:34.464Z,21.93
2019-01-27T17:55:01.029Z,19.50
2019-01-27T18:00:45.032Z,18.00
2019-01-27T18:03:32.295Z,15.17
2019-01-27T18:06:38.502Z,16.13
2019-01-27T18:09:46.362Z,17.73
2019-01-27T18:15:32.656Z,19.10
2019-01-27T18:17:59.147Z,19.93
2019-01-27T18:20:25.902Z,14.87
2019-01-27T18:23:12.337Z,18.80
2019-01-27T18:25:53.573Z,22.37
2019-01-27T18:28:40.147Z,16.83
2019-01-27T18:31:20.002Z,18.83
2019-01-27T18:34:06.417Z,22.10
2019-01-27T18:36:46.045Z,20.43
2019-01-27T18:39:32.300Z,20.20
2019-01-27T18:42:12.463Z,18.70
2019-01-27T18:44:58.833Z,21.00
2019-01-27T18:47:39.256Z,20.47
2019-01-27T18:50:25.559Z,19.73
2019-01-27T18:56:27.178Z,26.43
2019-01-27T18:59:33.263Z,22.00
2019-01-27T19:02:17.768Z,26.97
2019-01-27T19:08:37.938Z,21.30
2019-01-27T19:14:25.883Z,20.90
2019-01-27T19:17:31.988Z,26.30
2019-01-27T19:20:18.272Z,23.93
2019-01-27T19:23:04.626Z,20.90
2019-01-27T19:26:03.882Z,23.93
2019-01-27T19:31:53.572Z,22.13
2019-01-27T19:34:39.968Z,25.67
2019-01-27T19:40:47.021Z,21.43
2019-01-27T19:43:47.034Z,19.83
2019-01-27T19:46:53.423Z,22.00
2019-01-27T19:49:35.697Z,22.90
2019-01-27T19:58:11.249Z,18.57
2019-01-27T20:00:57.625Z,22.53
2019-01-27T20:09:33.382Z,23.10
2019-01-27T20:18:58.245Z,20.80
2019-01-27T20:24:42.129Z,17.77
2019-01-27T20:27:42.916Z,21.23
2019-01-27T20:30:48.929Z,20.97
2019-01-27T20:33:33.849Z,19.93
2019-01-27T20:39:41.450Z,20.90
2019-01-27T20:42:47.541Z,22.07
2019-01-27T20:45:33.922Z,26.83
2019-01-27T20:48:20.245Z,18.10
2019-01-27T20:51:04.395Z,19.27
2019-01-27T20:54:10.534Z,18.03
2019-01-27T20:56:52.232Z,14.80
2019-01-27T20:59:38.663Z,16.53
2019-01-27T21:02:25.902Z,19.13
2019-01-27T21:08:15.809Z,18.43
2019-01-27T21:11:15.745Z,18.00
2019-01-27T21:14:21.893Z,19.63
2019-01-27T21:17:21.539Z,15.50
2019-01-27T21:20:08.043Z,17.97
2019-01-27T21:22:47.851Z,21.37
2019-01-27T21:25:34.149Z,18.60
2019-01-27T21:28:13.810Z,18.37
2019-01-27T21:31:00.129Z,18.47
2019-01-27T21:33:26.647Z,19.67
2019-01-27T21:36:12.992Z,20.73
2019-01-27T21:38:39.638Z,22.20
2019-01-27T21:41:25.891Z,22.27
2019-01-27T21:44:05.893Z,21.90
2019-01-27T21:46:32.420Z,21.03
2019-01-27T21:48:59.032Z,21.40
2019-01-27T21:51:25.761Z,25.43
2019-01-27T21:54:12.027Z,24.33
2019-01-27T21:56:52.491Z,24.33
2019-01-27T21:59:38.997Z,19.70
2019-01-27T22:02:18.639Z,21.20
2019-01-27T22:05:05.574Z,21.13
2019-01-27T22:10:42.161Z,24.17
2019-01-27T22:13:28.564Z,23.63
2019-01-27T22:16:08.429Z,25.50
2019-01-27T22:18:35.063Z,21.07
2019-01-27T22:21:02.584Z,27.47
2019-01-27T22:23:49.025Z,19.30
2019-01-27T22:26:35.377Z,20.63
2019-01-27T22:29:15.046Z,24.67
2019-01-27T22:32:01.314Z,21.27
2019-01-27T22:34:47.568Z,21.87
2019-01-27T22:37:27.486Z,20.63
2019-01-27T22:40:14.046Z,19.27
2019-01-27T22:42:53.815Z,18.93
2019-01-27T22:45:22.448Z,21.37
2019-01-27T22:50:17.970Z,24.57
2019-01-27T22:52:44.434Z,18.60
2019-01-27T22:55:31.516Z,20.47
2019-01-27T22:57:57.866Z,17.07
2019-01-27T23:03:59.363Z,21.07
2019-01-27T23:06:45.746Z,22.80
2019-01-27T23:09:25.455Z,20.03
2019-01-27T23:11:51.936Z,34.03
2019-01-27T23:14:38.314Z,19.50
2019-01-27T23:17:18.795Z,20.30
2019-01-27T23:20:05.765Z,18.43
2019-01-27T23:22:32.354Z,22.73
2019-01-27T23:25:18.622Z,19.70
2019-01-27T23:27:58.071Z,21.80
2019-01-27T23:30:44.416Z,21.37
2019-01-27T23:33:24.293Z,22.40
2019-01-27T23:35:50.835Z,24.63
2019-01-27T23:38:37.162Z,23.17
2019-01-27T23:41:03.640Z,24.90
2019-01-27T23:43:49.915Z,22.90
2019-01-27T23:46:36.194Z,22.90
2019-01-27T23:49:16.516Z,23.23
2019-01-27T23:51:42.989Z,22.13
2019-01-27T23:54:29.346Z,25.43
2019-01-27T23:57:15.582Z,19.30
2019-01-27T23:59:55.910Z,22.87
